Gas Grouper — V7TZ2 — position and weather

sailwx.info

Track history (hours):
 
Tides and Currents Weather Stations Pressure Air Temp Water Temp Dewpoint Dewpoint Depression Visibility Wind Speed Wind Dir Waves Ship Positions

Gas Grouper

Last reported at 2015-Mar-02 01:12 UTC. Time now 2015-Mar-03 18:51 UTC.
Position N 46°32' E 030°58'.

Length 174 m; draft 6.6 m.

Type: Tanker. MMSI: 538003910.

Date/timePositionNaut miles runAvg speedWind from/ knotsBaromVisibWave heightAir tempDewpointWater temp
2015-Mar-02 01:12N 46°32' E 030°58'0 0.0
2015-Mar-02 00:32N 46°32' E 030°58'0 0.0
2015-Feb-28 01:31N 46°32' E 030°58'0 0.0
2015-Feb-28 00:13N 46°32' E 030°58'0 0.0
2015-Feb-27 20:24N 46°32' E 030°58'0 0.0
2015-Feb-27 18:06N 46°32' E 030°58'0 0.0
2015-Feb-27 17:29N 46°32' E 030°58'0 0.0
2015-Feb-27 16:12N 46°32' E 030°58'0 0.0
2015-Feb-27 15:33N 46°32' E 030°58'34214.0
2015-Feb-26 15:05N 41°00' E 028°60'712.7
2015-Feb-26 14:33N 40°54' E 028°56'1212.0
2015-Feb-26 13:33N 40°42' E 028°59'1 1.2
2015-Feb-26 12:33N 40°43' E 028°58'1 1.3
2015-Feb-26 11:33N 40°44' E 028°57'1 1.3
2015-Feb-26 10:30N 40°45' E 028°56'1 1.0
2015-Feb-26 09:33N 40°45' E 028°55'1 0.9
2015-Feb-26 08:33N 40°46' E 028°55'2 1.7
2015-Feb-26 07:33N 40°45' E 028°55'1 1.3
2015-Feb-26 06:33N 40°44' E 028°56'1 1.3
2015-Feb-26 05:31N 40°45' E 028°55'1 1.3
2015-Feb-26 04:33N 40°46' E 028°54'1 0.9
2015-Feb-26 03:33N 40°47' E 028°54'1 0.8
2015-Feb-26 02:33N 40°47' E 028°54'1 0.7
2015-Feb-26 01:32N 40°48' E 028°53'0 0.4
2015-Feb-26 00:33N 40°48' E 028°53'2 2.0
2015-Feb-25 23:33N 40°46' E 028°52'1 0.7
2015-Feb-25 22:32N 40°47' E 028°52'1 0.7
2015-Feb-25 21:32N 40°47' E 028°52'1 0.6
2015-Feb-25 20:30N 40°48' E 028°52'5 5.7
2015-Feb-25 19:33N 40°43' E 028°50'1 0.8
2015-Feb-25 18:32N 40°43' E 028°51'1 1.3
2015-Feb-25 17:33N 40°45' E 028°52'1 1.4
2015-Feb-25 16:33N 40°46' E 028°52'1 1.4
2015-Feb-25 15:33N 40°47' E 028°53'1 1.2
2015-Feb-25 14:33N 40°48' E 028°54'1 1.1
2015-Feb-25 13:32N 40°49' E 028°55'3 3.2
2015-Feb-25 12:32N 40°47' E 028°51'3 2.6
2015-Feb-25 11:29N 40°45' E 028°49'1 1.3
2015-Feb-25 10:30N 40°46' E 028°49'1 1.1
2015-Feb-25 09:19N 40°47' E 028°50'1 0.7
2015-Feb-25 08:32N 40°47' E 028°51'8 3.9
2015-Feb-25 06:23N 40°43' E 028°42'1 0.6
2015-Feb-25 05:24N 40°43' E 028°43'1 0.8
2015-Feb-25 04:22N 40°43' E 028°44'1 1.1
2015-Feb-25 03:08N 40°44' E 028°45'1 1.3
2015-Feb-25 02:19N 40°45' E 028°46'1 1.4
2015-Feb-25 01:33N 40°45' E 028°47'4 4.0
2015-Feb-25 00:33N 40°42' E 028°45'1 0.7
2015-Feb-24 23:33N 40°41' E 028°45'1 1.3
2015-Feb-24 22:33N 40°42' E 028°46'2 1.5
2015-Feb-24 21:27N 40°44' E 028°47'1 1.2
2015-Feb-24 20:33N 40°44' E 028°48'1 1.2
2015-Feb-24 19:31N 40°45' E 028°50'1 1.5
2015-Feb-24 18:31N 40°46' E 028°51'2 1.7
2015-Feb-24 17:33N 40°46' E 028°53'6 6.1
2015-Feb-24 16:33N 40°41' E 028°50'2 1.8
2015-Feb-24 15:33N 40°40' E 028°48'1 1.2
2015-Feb-24 14:33N 40°41' E 028°48'1 1.4
2015-Feb-24 13:33N 40°42' E 028°48'2 1.4
2015-Feb-24 12:26N 40°44' E 028°48'1 1.6
2015-Feb-24 11:32N 40°45' E 028°48'2 1.7
2015-Feb-24 10:30N 40°47' E 028°49'1 1.2
2015-Feb-24 09:33N 40°48' E 028°50'1 0.7
2015-Feb-24 08:33N 40°48' E 028°51'1 0.8
2015-Feb-24 07:32N 40°48' E 028°52'1 0.8
2015-Feb-24 06:33N 40°48' E 028°53'9 8.4
2015-Feb-24 05:30N 40°45' E 028°42'1 0.5
2015-Feb-24 03:20N 40°46' E 028°43'1 1.3
2015-Feb-24 02:20N 40°46' E 028°45'1 1.2
2015-Feb-24 01:26N 40°46' E 028°46'1 1.0
2015-Feb-24 00:32N 40°46' E 028°47'1 1.0
2015-Feb-23 23:30N 40°47' E 028°49'1 1.1
2015-Feb-23 22:33N 40°47' E 028°50'1 1.1
2015-Feb-23 21:33N 40°47' E 028°51'2 2.4
2015-Feb-23 20:31N 40°49' E 028°54'2 1.9
2015-Feb-23 19:33N 40°47' E 028°52'5 4.5
2015-Feb-23 18:21N 40°45' E 028°46'1 1.0
2015-Feb-23 17:33N 40°45' E 028°47'1 1.3
2015-Feb-23 16:27N 40°45' E 028°49'1 1.1
2015-Feb-23 15:32N 40°46' E 028°50'1 0.9
2015-Feb-23 14:33N 40°46' E 028°51'0 0.4
2015-Feb-23 13:33N 40°46' E 028°52'1 0.7
2015-Feb-23 12:32N 40°47' E 028°52'1 0.8
2015-Feb-23 11:33N 40°47' E 028°52'1 0.9
2015-Feb-23 10:31N 40°48' E 028°53'9 9.2
2015-Feb-23 09:33N 40°48' E 028°41'286 8.6
2015-Feb-22 00:11N 37°27' E 024°19'  
Track history (hours):
 
Tides and Currents Weather Stations Pressure Air Temp Water Temp Dewpoint Dewpoint Depression Visibility Wind Speed Wind Dir Waves Ship Positions

Gas Grouper

Last reported at 2015-Mar-02 01:12 UTC. Time now 2015-Mar-03 18:51 UTC.
Position N 46°32' E 030°58'.

Length 174 m; draft 6.6 m.

Type: Tanker. MMSI: 538003910.

Date/timePositionNaut miles runAvg speedWind from/ knotsBaromVisibWave heightAir tempDewpointWater temp
2015-Mar-02 01:12N 46°32' E 030°58'0 0.0
2015-Mar-02 00:32N 46°32' E 030°58'0 0.0
2015-Feb-28 01:31N 46°32' E 030°58'0 0.0
2015-Feb-28 00:13N 46°32' E 030°58'0 0.0
2015-Feb-27 20:24N 46°32' E 030°58'0 0.0
2015-Feb-27 18:06N 46°32' E 030°58'0 0.0
2015-Feb-27 17:29N 46°32' E 030°58'0 0.0
2015-Feb-27 16:12N 46°32' E 030°58'0 0.0
2015-Feb-27 15:33N 46°32' E 030°58'34214.0
2015-Feb-26 15:05N 41°00' E 028°60'712.7
2015-Feb-26 14:33N 40°54' E 028°56'1212.0
2015-Feb-26 13:33N 40°42' E 028°59'1 1.2
2015-Feb-26 12:33N 40°43' E 028°58'1 1.3
2015-Feb-26 11:33N 40°44' E 028°57'1 1.3
2015-Feb-26 10:30N 40°45' E 028°56'1 1.0
2015-Feb-26 09:33N 40°45' E 028°55'1 0.9
2015-Feb-26 08:33N 40°46' E 028°55'2 1.7
2015-Feb-26 07:33N 40°45' E 028°55'1 1.3
2015-Feb-26 06:33N 40°44' E 028°56'1 1.3
2015-Feb-26 05:31N 40°45' E 028°55'1 1.3
2015-Feb-26 04:33N 40°46' E 028°54'1 0.9
2015-Feb-26 03:33N 40°47' E 028°54'1 0.8
2015-Feb-26 02:33N 40°47' E 028°54'1 0.7
2015-Feb-26 01:32N 40°48' E 028°53'0 0.4
2015-Feb-26 00:33N 40°48' E 028°53'2 2.0
2015-Feb-25 23:33N 40°46' E 028°52'1 0.7
2015-Feb-25 22:32N 40°47' E 028°52'1 0.7
2015-Feb-25 21:32N 40°47' E 028°52'1 0.6
2015-Feb-25 20:30N 40°48' E 028°52'5 5.7
2015-Feb-25 19:33N 40°43' E 028°50'1 0.8
2015-Feb-25 18:32N 40°43' E 028°51'1 1.3
2015-Feb-25 17:33N 40°45' E 028°52'1 1.4
2015-Feb-25 16:33N 40°46' E 028°52'1 1.4
2015-Feb-25 15:33N 40°47' E 028°53'1 1.2
2015-Feb-25 14:33N 40°48' E 028°54'1 1.1
2015-Feb-25 13:32N 40°49' E 028°55'3 3.2
2015-Feb-25 12:32N 40°47' E 028°51'3 2.6
2015-Feb-25 11:29N 40°45' E 028°49'1 1.3
2015-Feb-25 10:30N 40°46' E 028°49'1 1.1
2015-Feb-25 09:19N 40°47' E 028°50'1 0.7
2015-Feb-25 08:32N 40°47' E 028°51'8 3.9
2015-Feb-25 06:23N 40°43' E 028°42'1 0.6
2015-Feb-25 05:24N 40°43' E 028°43'1 0.8
2015-Feb-25 04:22N 40°43' E 028°44'1 1.1
2015-Feb-25 03:08N 40°44' E 028°45'1 1.3
2015-Feb-25 02:19N 40°45' E 028°46'1 1.4
2015-Feb-25 01:33N 40°45' E 028°47'4 4.0
2015-Feb-25 00:33N 40°42' E 028°45'1 0.7
2015-Feb-24 23:33N 40°41' E 028°45'1 1.3
2015-Feb-24 22:33N 40°42' E 028°46'2 1.5
2015-Feb-24 21:27N 40°44' E 028°47'1 1.2
2015-Feb-24 20:33N 40°44' E 028°48'1 1.2
2015-Feb-24 19:31N 40°45' E 028°50'1 1.5
2015-Feb-24 18:31N 40°46' E 028°51'2 1.7
2015-Feb-24 17:33N 40°46' E 028°53'6 6.1
2015-Feb-24 16:33N 40°41' E 028°50'2 1.8
2015-Feb-24 15:33N 40°40' E 028°48'1 1.2
2015-Feb-24 14:33N 40°41' E 028°48'1 1.4
2015-Feb-24 13:33N 40°42' E 028°48'2 1.4
2015-Feb-24 12:26N 40°44' E 028°48'1 1.6
2015-Feb-24 11:32N 40°45' E 028°48'2 1.7
2015-Feb-24 10:30N 40°47' E 028°49'1 1.2
2015-Feb-24 09:33N 40°48' E 028°50'1 0.7
2015-Feb-24 08:33N 40°48' E 028°51'1 0.8
2015-Feb-24 07:32N 40°48' E 028°52'1 0.8
2015-Feb-24 06:33N 40°48' E 028°53'9 8.4
2015-Feb-24 05:30N 40°45' E 028°42'1 0.5
2015-Feb-24 03:20N 40°46' E 028°43'1 1.3
2015-Feb-24 02:20N 40°46' E 028°45'1 1.2
2015-Feb-24 01:26N 40°46' E 028°46'1 1.0
2015-Feb-24 00:32N 40°46' E 028°47'1 1.0
2015-Feb-23 23:30N 40°47' E 028°49'1 1.1
2015-Feb-23 22:33N 40°47' E 028°50'1 1.1
2015-Feb-23 21:33N 40°47' E 028°51'2 2.4
2015-Feb-23 20:31N 40°49' E 028°54'2 1.9
2015-Feb-23 19:33N 40°47' E 028°52'5 4.5
2015-Feb-23 18:21N 40°45' E 028°46'1 1.0
2015-Feb-23 17:33N 40°45' E 028°47'1 1.3
2015-Feb-23 16:27N 40°45' E 028°49'1 1.1
2015-Feb-23 15:32N 40°46' E 028°50'1 0.9
2015-Feb-23 14:33N 40°46' E 028°51'0 0.4
2015-Feb-23 13:33N 40°46' E 028°52'1 0.7
2015-Feb-23 12:32N 40°47' E 028°52'1 0.8
2015-Feb-23 11:33N 40°47' E 028°52'1 0.9
2015-Feb-23 10:31N 40°48' E 028°53'9 9.2
2015-Feb-23 09:33N 40°48' E 028°41'286 8.6
2015-Feb-22 00:11N 37°27' E 024°19'  

Dump ship's entire track history